createdAt,value
2024-05-09T00:00:22.514Z,85.3838
2024-05-09T00:01:18.931Z,85.2697
2024-05-09T00:02:19.790Z,85.3395
2024-05-09T00:03:22.305Z,85.2650
2024-05-09T00:04:22.234Z,84.9654
2024-05-09T00:05:24.431Z,85.1990
2024-05-09T00:06:24.375Z,85.4805
2024-05-09T00:07:26.423Z,85.4935
2024-05-09T00:08:28.827Z,85.6806
2024-05-09T00:09:31.022Z,85.4695
2024-05-09T00:10:36.970Z,85.4384
2024-05-09T00:11:34.145Z,85.3631
2024-05-09T00:12:36.326Z,85.1154
2024-05-09T00:13:38.506Z,85.1548
2024-05-09T00:14:40.748Z,85.2269
2024-05-09T00:15:42.905Z,85.3418
2024-05-09T00:16:45.086Z,85.3503
2024-05-09T00:17:47.417Z,85.4971
2024-05-09T00:18:47.467Z,85.3465
2024-05-09T00:19:48.991Z,85.3070
2024-05-09T00:20:49.789Z,85.2204
2024-05-09T00:21:49.574Z,85.1044
2024-05-09T00:22:51.776Z,85.2099
2024-05-09T00:23:52.351Z,85.3653
2024-05-09T00:24:53.238Z,85.4366
2024-05-09T00:25:55.427Z,85.4103
2024-05-09T00:26:57.629Z,85.3935
2024-05-09T00:27:59.820Z,85.4543
2024-05-09T00:29:02.219Z,85.4425
2024-05-09T00:30:04.207Z,85.5135
2024-05-09T00:31:04.175Z,85.6203
2024-05-09T00:32:06.414Z,85.7212
2024-05-09T00:33:07.859Z,85.6607
2024-05-09T00:34:07.094Z,85.7227
2024-05-09T00:35:07.055Z,85.5770
2024-05-09T00:36:09.346Z,85.5009
2024-05-09T00:37:11.553Z,85.5839
2024-05-09T00:38:13.780Z,85.7203
2024-05-09T00:39:15.987Z,85.8017
2024-05-09T00:40:26.568Z,85.9289
2024-05-09T00:41:19.928Z,86.1709
2024-05-09T00:42:19.844Z,86.3041
2024-05-09T00:43:22.070Z,86.3401
2024-05-09T00:44:24.518Z,86.3352
2024-05-09T00:45:24.503Z,86.2892
2024-05-09T00:46:24.487Z,86.1537
2024-05-09T00:47:26.886Z,86.1761
2024-05-09T00:48:27.188Z,86.2084
2024-05-09T00:49:28.520Z,86.1065
2024-05-09T00:50:35.230Z,85.9301
2024-05-09T00:51:29.411Z,86.0219
2024-05-09T00:52:31.612Z,86.0471
2024-05-09T00:53:33.950Z,85.8772
2024-05-09T00:54:33.938Z,85.7737
2024-05-09T00:55:36.150Z,85.7534
2024-05-09T00:56:36.283Z,85.7952
2024-05-09T00:57:38.580Z,85.6071
2024-05-09T00:58:40.800Z,85.5191
2024-05-09T00:59:43.018Z,85.4413
2024-05-09T01:00:45.422Z,85.4845
2024-05-09T01:01:48.407Z,85.3656
2024-05-09T01:02:48.357Z,85.2970
2024-05-09T01:03:51.672Z,85.2609
2024-05-09T01:04:51.996Z,85.2226
2024-05-09T01:05:52.032Z,85.1864
2024-05-09T01:06:52.006Z,85.1405
2024-05-09T01:07:54.158Z,85.0710
2024-05-09T01:08:56.437Z,85.0111
2024-05-09T01:09:58.776Z,84.9288
2024-05-09T01:11:01.386Z,84.8756
2024-05-09T01:12:02.523Z,84.7276
2024-05-09T01:13:02.868Z,84.6471
2024-05-09T01:14:05.202Z,84.6178
2024-05-09T01:15:07.521Z,84.6158
2024-05-09T01:16:12.821Z,84.5157
2024-05-09T01:17:11.307Z,84.4610
2024-05-09T01:18:12.477Z,84.4095
2024-05-09T01:19:13.789Z,84.4502
2024-05-09T01:20:20.052Z,84.4714
2024-05-09T01:21:14.968Z,84.3824
2024-05-09T01:22:14.927Z,84.4363
2024-05-09T01:23:17.224Z,84.4705
2024-05-09T01:24:17.926Z,84.4880
2024-05-09T01:25:20.265Z,84.3407
2024-05-09T01:26:22.387Z,84.2859
2024-05-09T01:27:24.724Z,84.3013
2024-05-09T01:28:26.792Z,84.3521
2024-05-09T01:29:29.166Z,84.4256
2024-05-09T01:30:35.111Z,84.4235
2024-05-09T01:31:32.222Z,84.4746
2024-05-09T01:32:34.649Z,84.4828
2024-05-09T01:33:34.724Z,84.5105
2024-05-09T01:34:34.622Z,84.5129
2024-05-09T01:35:36.962Z,84.5631
2024-05-09T01:36:36.766Z,84.6209
2024-05-09T01:37:39.857Z,84.5258
2024-05-09T01:38:39.624Z,84.4853
2024-05-09T01:39:41.704Z,84.4266
2024-05-09T01:40:43.937Z,84.4387
2024-05-09T01:41:46.181Z,84.5045
2024-05-09T01:42:48.429Z,84.4881
2024-05-09T01:43:50.604Z,84.5053
2024-05-09T01:44:52.760Z,84.4614
2024-05-09T01:45:54.926Z,84.4086
2024-05-09T01:46:57.247Z,84.4348
2024-05-09T01:47:59.741Z,84.3932
2024-05-09T01:48:59.833Z,84.4376
2024-05-09T01:49:59.745Z,84.4668
2024-05-09T01:51:01.949Z,84.3997
2024-05-09T01:52:01.936Z,84.3598
2024-05-09T01:53:04.161Z,84.4722
2024-05-09T01:54:06.464Z,84.4869
2024-05-09T01:55:08.554Z,84.5253
2024-05-09T01:56:10.795Z,84.5355
2024-05-09T01:57:12.847Z,84.6035
2024-05-09T01:58:15.110Z,84.5941
2024-05-09T01:59:17.252Z,84.4606
2024-05-09T02:00:30.157Z,84.4238
2024-05-09T02:01:20.303Z,84.3898
2024-05-09T02:02:22.627Z,84.4510
2024-05-09T02:03:25.038Z,84.4552
2024-05-09T02:04:25.051Z,84.5223
2024-05-09T02:05:25.029Z,84.5240
2024-05-09T02:06:27.099Z,84.4588
2024-05-09T02:07:29.190Z,84.5432
2024-05-09T02:08:31.490Z,84.6392
2024-05-09T02:09:31.533Z,84.6270
2024-05-09T02:10:33.875Z,84.5649
2024-05-09T02:11:33.996Z,84.5736
2024-05-09T02:12:33.877Z,84.6816
2024-05-09T02:13:33.740Z,84.6952
2024-05-09T02:14:36.054Z,84.6633
2024-05-09T02:15:37.022Z,84.6723
2024-05-09T02:16:39.374Z,84.6680
2024-05-09T02:17:40.511Z,84.5490
2024-05-09T02:18:40.586Z,84.4721
2024-05-09T02:19:41.430Z,84.4260
2024-05-09T02:20:44.148Z,84.4984
2024-05-09T02:21:44.121Z,84.3359
2024-05-09T02:22:46.386Z,84.2756
2024-05-09T02:23:46.372Z,84.2930
2024-05-09T02:24:48.540Z,84.3419
2024-05-09T02:25:50.738Z,84.2920
2024-05-09T02:26:52.888Z,84.3315
2024-05-09T02:27:55.056Z,84.2683
2024-05-09T02:28:57.323Z,84.2666
2024-05-09T02:29:59.492Z,84.4732
2024-05-09T02:31:01.698Z,84.4984
2024-05-09T02:32:02.977Z,84.4919
2024-05-09T02:33:03.463Z,84.5675
2024-05-09T02:34:03.420Z,84.5272
2024-05-09T02:35:03.423Z,84.5463
2024-05-09T02:36:03.365Z,84.7112
2024-05-09T02:37:05.734Z,84.7724
2024-05-09T02:38:06.692Z,84.8307
2024-05-09T02:39:06.756Z,84.6870
2024-05-09T02:40:14.273Z,84.6485
2024-05-09T02:41:10.083Z,84.6969
2024-05-09T02:42:12.333Z,84.7636
2024-05-09T02:43:14.566Z,84.8651
2024-05-09T02:44:16.896Z,84.9000
2024-05-09T02:45:16.807Z,84.8428
2024-05-09T02:46:19.172Z,84.6961
2024-05-09T02:47:21.757Z,84.6669
2024-05-09T02:48:21.821Z,84.8075
2024-05-09T02:49:24.221Z,84.7621
2024-05-09T02:50:33.060Z,84.8815
2024-05-09T02:51:26.870Z,84.7816
2024-05-09T02:52:27.293Z,84.8026
2024-05-09T02:53:27.157Z,84.7984
2024-05-09T02:54:29.323Z,84.7334
2024-05-09T02:55:31.605Z,84.7115
2024-05-09T02:56:34.045Z,84.9156
2024-05-09T02:57:36.174Z,84.9330
2024-05-09T02:58:38.440Z,84.9400
2024-05-09T02:59:40.730Z,85.0220
2024-05-09T03:00:42.831Z,85.1301
2024-05-09T03:01:42.492Z,85.0641
2024-05-09T03:02:42.735Z,85.1000
2024-05-09T03:03:42.730Z,85.0704
2024-05-09T03:04:42.759Z,85.0745
2024-05-09T03:05:45.394Z,85.1247
2024-05-09T03:06:45.457Z,85.1392
2024-05-09T03:07:46.409Z,85.1746
2024-05-09T03:08:46.270Z,85.1807
2024-05-09T03:09:48.389Z,85.1037
2024-05-09T03:10:50.584Z,85.1669
2024-05-09T03:11:52.981Z,85.1994
2024-05-09T03:12:52.928Z,85.1323
2024-05-09T03:13:55.099Z,85.1781
2024-05-09T03:14:57.200Z,85.0697
2024-05-09T03:15:59.537Z,85.0000
2024-05-09T03:17:01.915Z,84.9551
2024-05-09T03:18:02.142Z,85.0469
2024-05-09T03:19:02.465Z,85.0514
2024-05-09T03:20:05.110Z,85.0971
2024-05-09T03:21:04.355Z,85.0351
2024-05-09T03:22:06.660Z,85.1451
2024-05-09T03:23:06.795Z,85.1784
2024-05-09T03:24:09.167Z,85.1049
2024-05-09T03:25:11.351Z,85.1321
2024-05-09T03:26:13.665Z,85.1190
2024-05-09T03:27:15.908Z,85.1158
2024-05-09T03:28:15.763Z,85.1541
2024-05-09T03:29:18.078Z,85.2037
2024-05-09T03:30:29.289Z,85.1953
2024-05-09T03:31:18.947Z,85.1054
2024-05-09T03:32:21.488Z,85.1075
2024-05-09T03:33:21.835Z,85.1299
2024-05-09T03:34:22.058Z,85.0927
2024-05-09T03:35:25.005Z,85.1399
2024-05-09T03:36:24.993Z,85.1204
2024-05-09T03:37:25.464Z,85.1470
2024-05-09T03:38:26.242Z,85.2512
2024-05-09T03:39:28.530Z,85.2597
2024-05-09T03:40:31.401Z,85.2519
2024-05-09T03:41:31.480Z,85.2475
2024-05-09T03:42:31.932Z,85.1711
2024-05-09T03:43:31.822Z,85.2155
2024-05-09T03:44:34.217Z,85.2074
2024-05-09T03:45:34.191Z,85.2255
2024-05-09T03:46:36.417Z,85.2088
2024-05-09T03:47:38.848Z,85.1094
2024-05-09T03:48:38.968Z,85.1851
2024-05-09T03:49:41.206Z,85.1903
2024-05-09T03:50:43.610Z,85.2776
2024-05-09T03:51:44.082Z,85.3293
2024-05-09T03:52:44.024Z,85.3078
2024-05-09T03:53:44.273Z,85.3622
2024-05-09T03:54:46.434Z,85.3266
2024-05-09T03:55:48.620Z,85.4207
2024-05-09T03:56:50.938Z,85.4297
2024-05-09T03:57:53.271Z,85.4002
2024-05-09T03:58:55.592Z,85.4050
2024-05-09T03:59:57.744Z,85.3814
2024-05-09T04:01:00.963Z,85.4927
2024-05-09T04:02:01.995Z,85.4128
2024-05-09T04:03:02.330Z,85.3888
2024-05-09T04:04:02.510Z,85.3544
2024-05-09T04:05:04.893Z,85.4266
2024-05-09T04:06:05.411Z,85.4350
2024-05-09T04:07:05.273Z,85.4112
2024-05-09T04:08:07.710Z,85.2997
2024-05-09T04:09:07.639Z,85.3384
2024-05-09T04:10:16.994Z,85.3215
2024-05-09T04:11:10.992Z,85.2582
2024-05-09T04:12:12.023Z,85.1880
2024-05-09T04:13:13.015Z,85.1276
2024-05-09T04:14:15.293Z,85.0876
2024-05-09T04:15:15.580Z,85.1258
2024-05-09T04:16:17.755Z,85.1090
2024-05-09T04:17:20.595Z,85.1774
2024-05-09T04:18:22.442Z,85.1721
2024-05-09T04:19:24.640Z,85.1869
2024-05-09T04:20:33.909Z,85.1431
2024-05-09T04:21:25.563Z,85.1112
2024-05-09T04:22:27.718Z,85.0353
2024-05-09T04:23:30.009Z,85.0211
2024-05-09T04:24:29.998Z,84.9642
2024-05-09T04:25:32.275Z,84.9497
2024-05-09T04:26:34.627Z,85.0009
2024-05-09T04:27:37.832Z,84.9921
2024-05-09T04:28:37.707Z,84.9320
2024-05-09T04:29:40.028Z,84.9707
2024-05-09T04:30:42.684Z,84.9624
2024-05-09T04:31:43.022Z,84.9966
2024-05-09T04:32:45.427Z,85.0047
2024-05-09T04:33:46.732Z,84.8764
2024-05-09T04:34:46.752Z,84.9268
2024-05-09T04:35:48.999Z,84.8675
2024-05-09T04:36:51.180Z,84.8783
2024-05-09T04:37:51.469Z,84.9663
2024-05-09T04:38:53.677Z,84.9920
2024-05-09T04:39:55.920Z,85.0151
2024-05-09T04:40:58.103Z,84.8874
2024-05-09T04:42:00.293Z,84.7777
2024-05-09T04:43:02.382Z,84.7910
2024-05-09T04:44:04.548Z,84.7757
2024-05-09T04:45:06.692Z,84.7005
2024-05-09T04:46:08.902Z,84.6967
2024-05-09T04:47:11.986Z,84.6643
2024-05-09T04:48:12.177Z,84.7701
2024-05-09T04:49:12.106Z,84.6857
2024-05-09T04:50:21.182Z,84.5453
2024-05-09T04:51:15.381Z,84.6182
2024-05-09T04:52:18.376Z,84.6897
2024-05-09T04:53:18.428Z,84.6028
2024-05-09T04:54:26.209Z,84.6871
2024-05-09T04:55:19.449Z,84.5800
2024-05-09T04:56:21.644Z,84.6267
2024-05-09T04:57:23.880Z,84.5785
2024-05-09T04:58:25.980Z,84.6117
2024-05-09T04:59:28.328Z,84.6243
2024-05-09T05:00:35.035Z,84.6430
2024-05-09T05:01:29.292Z,84.4450
2024-05-09T05:02:31.616Z,84.4843
2024-05-09T05:03:34.036Z,84.4823
2024-05-09T05:04:33.998Z,84.5112
2024-05-09T05:05:36.266Z,84.4813
2024-05-09T05:06:38.544Z,84.2759
2024-05-09T05:07:40.648Z,84.3374
2024-05-09T05:08:42.863Z,84.3015
2024-05-09T05:09:45.024Z,84.4299
2024-05-09T05:10:47.945Z,84.2904
2024-05-09T05:11:49.572Z,84.6187
2024-05-09T05:12:51.521Z,84.5654
2024-05-09T05:13:52.475Z,84.5131
2024-05-09T05:14:54.957Z,84.6992
2024-05-09T05:15:54.860Z,84.5953
2024-05-09T05:16:55.772Z,84.6243
2024-05-09T05:17:55.884Z,84.6268
2024-05-09T05:18:56.130Z,84.5949
2024-05-09T05:19:57.250Z,84.5427
2024-05-09T05:20:57.397Z,84.4635
2024-05-09T05:21:57.448Z,84.4392
2024-05-09T05:22:58.256Z,84.3601
2024-05-09T05:24:00.560Z,84.2659
2024-05-09T05:25:02.877Z,84.2461
2024-05-09T05:26:03.305Z,84.1271
2024-05-09T05:27:04.240Z,84.0189
2024-05-09T05:28:06.568Z,84.0788
2024-05-09T05:29:08.905Z,84.0518
2024-05-09T05:30:17.628Z,84.0069
2024-05-09T05:31:13.097Z,84.0678
2024-05-09T05:32:13.194Z,84.1712
2024-05-09T05:33:13.582Z,84.1741
2024-05-09T05:34:14.123Z,84.1724
2024-05-09T05:35:16.401Z,84.2488
2024-05-09T05:36:16.346Z,84.4251
2024-05-09T05:37:18.505Z,84.5213
2024-05-09T05:38:24.827Z,84.4920
2024-05-09T05:39:21.866Z,84.4467
2024-05-09T05:40:32.356Z,84.4055
2024-05-09T05:41:25.452Z,84.1751
2024-05-09T05:42:25.753Z,84.0184
2024-05-09T05:43:28.035Z,83.9442
2024-05-09T05:44:30.432Z,84.0691
2024-05-09T05:45:30.358Z,84.0177
2024-05-09T05:46:32.683Z,83.8007
2024-05-09T05:47:35.218Z,83.8352
2024-05-09T05:48:35.331Z,83.8696
2024-05-09T05:49:37.820Z,83.8578
2024-05-09T05:50:38.779Z,83.9561
2024-05-09T05:51:38.954Z,84.0195
2024-05-09T05:52:41.245Z,84.1232
2024-05-09T05:53:42.288Z,84.1393
2024-05-09T05:54:42.282Z,84.0386
2024-05-09T05:55:44.718Z,84.1754
2024-05-09T05:56:44.996Z,83.9770
2024-05-09T05:57:45.135Z,83.8513
2024-05-09T05:58:47.378Z,83.8011
2024-05-09T05:59:49.677Z,83.7211
2024-05-09T06:00:52.413Z,83.7998
2024-05-09T06:01:52.365Z,83.7644
2024-05-09T06:02:52.462Z,83.7703
2024-05-09T06:03:53.484Z,83.9440
2024-05-09T06:04:54.046Z,83.8811
2024-05-09T06:05:54.120Z,83.8218
2024-05-09T06:06:56.353Z,83.8118
2024-05-09T06:07:58.698Z,83.6851
2024-05-09T06:08:58.982Z,83.5207
2024-05-09T06:10:01.280Z,83.4952
2024-05-09T06:11:03.751Z,83.2672
2024-05-09T06:12:03.831Z,83.0976
2024-05-09T06:13:05.365Z,83.1030
2024-05-09T06:14:05.282Z,83.1089
2024-05-09T06:15:07.649Z,82.9377
2024-05-09T06:16:09.959Z,82.8114
2024-05-09T06:17:12.399Z,82.6497
2024-05-09T06:18:13.014Z,82.5498
2024-05-09T06:19:13.218Z,82.4324
2024-05-09T06:20:20.560Z,82.0711
2024-05-09T06:21:15.482Z,82.0827
2024-05-09T06:22:15.960Z,81.8808
2024-05-09T06:23:18.214Z,81.5271
2024-05-09T06:24:18.598Z,81.3420
2024-05-09T06:25:20.839Z,81.4400
2024-05-09T06:26:23.223Z,81.2797
2024-05-09T06:27:23.963Z,80.6294
2024-05-09T06:28:23.788Z,80.7084
2024-05-09T06:29:26.144Z,80.3015
2024-05-09T06:30:34.902Z,79.9003
2024-05-09T06:31:27.010Z,79.5946
2024-05-09T06:32:29.321Z,79.4006
2024-05-09T06:33:29.585Z,79.1869
2024-05-09T06:34:29.783Z,78.9743
2024-05-09T06:35:29.858Z,78.8013
2024-05-09T06:36:30.402Z,79.2015
2024-05-09T06:37:30.303Z,78.6567
2024-05-09T06:38:32.591Z,78.1910
2024-05-09T06:39:32.543Z,78.3851
2024-05-09T06:40:38.323Z,78.1170
2024-05-09T06:41:35.849Z,77.6854
2024-05-09T06:42:38.070Z,77.8349
2024-05-09T06:43:40.131Z,77.6758
2024-05-09T06:44:42.291Z,77.4361
2024-05-09T06:45:44.481Z,77.5034
2024-05-09T06:46:46.868Z,77.2476
2024-05-09T06:47:46.954Z,77.2059
2024-05-09T06:48:50.503Z,77.1643
2024-05-09T06:49:50.623Z,76.7638
2024-05-09T06:50:50.726Z,76.2067
2024-05-09T06:51:50.751Z,75.2608
2024-05-09T06:52:52.915Z,74.4823
2024-05-09T06:53:55.067Z,75.9899
2024-05-09T06:54:57.356Z,76.7609
2024-05-09T06:55:59.630Z,76.2161
2024-05-09T06:57:01.932Z,76.5637
2024-05-09T06:58:03.993Z,78.4873
2024-05-09T06:59:06.325Z,78.2872
2024-05-09T07:00:15.466Z,77.4164
2024-05-09T07:01:09.600Z,77.0924
2024-05-09T07:02:09.635Z,76.9866
2024-05-09T07:03:10.078Z,77.0383
2024-05-09T07:04:11.303Z,76.9520
2024-05-09T07:05:11.627Z,76.8565
2024-05-09T07:06:11.656Z,76.7385
2024-05-09T07:07:14.045Z,76.8423
2024-05-09T07:08:16.554Z,76.5961
2024-05-09T07:09:16.789Z,77.2811
2024-05-09T07:10:22.143Z,77.2987
2024-05-09T07:11:18.025Z,77.1522
2024-05-09T07:12:19.090Z,76.9438
2024-05-09T07:13:19.107Z,76.7728
2024-05-09T07:14:21.552Z,77.3540
2024-05-09T07:15:21.795Z,77.0949
2024-05-09T07:16:21.800Z,76.9005
2024-05-09T07:17:24.240Z,76.9164
2024-05-09T07:18:24.504Z,76.6703
2024-05-09T07:19:25.012Z,76.7109
2024-05-09T07:20:32.491Z,76.6986
2024-05-09T07:21:26.093Z,76.3686
2024-05-09T07:22:25.976Z,76.2489
2024-05-09T07:23:26.044Z,75.8752
2024-05-09T07:24:26.042Z,75.8291
2024-05-09T07:25:28.369Z,75.7185
2024-05-09T07:26:28.329Z,75.3170
2024-05-09T07:27:29.916Z,75.4208
2024-05-09T07:28:30.073Z,74.5956
2024-05-09T07:29:34.714Z,74.4554
2024-05-09T07:30:34.765Z,74.1377
2024-05-09T07:31:35.162Z,74.2530
2024-05-09T07:32:37.567Z,74.2666
2024-05-09T07:33:38.570Z,73.7560
2024-05-09T07:34:38.634Z,74.0714
2024-05-09T07:35:38.839Z,74.3696
2024-05-09T07:36:39.886Z,74.2619
2024-05-09T07:37:42.215Z,73.9575
2024-05-09T07:38:42.242Z,73.6411
2024-05-09T07:39:42.552Z,73.6921
2024-05-09T07:40:42.575Z,73.8795
2024-05-09T07:41:44.912Z,73.7128
2024-05-09T07:42:44.995Z,74.1619
2024-05-09T07:43:47.329Z,74.2117
2024-05-09T07:44:49.573Z,74.1938
2024-05-09T07:45:54.468Z,74.1577
2024-05-09T07:48:13.727Z,73.6101
2024-05-09T07:50:34.746Z,73.1541
2024-05-09T07:53:22.002Z,73.4824
2024-05-09T07:54:01.395Z,73.4613
2024-05-09T07:55:02.035Z,73.9607
2024-05-09T07:56:02.171Z,73.8225
2024-05-09T07:57:03.385Z,73.9068
2024-05-09T07:58:03.485Z,73.6595
2024-05-09T07:59:05.812Z,72.8470
2024-05-09T08:00:06.680Z,73.5428
2024-05-09T08:01:07.043Z,73.0225
2024-05-09T08:02:07.086Z,72.5137
2024-05-09T08:03:07.013Z,72.6315
2024-05-09T08:04:09.274Z,72.9290
2024-05-09T08:05:09.388Z,74.7803
2024-05-09T08:06:10.390Z,73.7989
2024-05-09T08:07:12.697Z,73.7861
2024-05-09T08:08:14.997Z,72.7629
2024-05-09T08:09:21.013Z,72.5961
2024-05-09T08:10:22.107Z,72.9089
2024-05-09T08:11:18.310Z,73.8683
2024-05-09T08:12:20.612Z,73.7448
2024-05-09T08:13:23.135Z,72.7144
2024-05-09T08:14:23.196Z,72.0388
2024-05-09T08:15:25.486Z,71.9973
2024-05-09T08:16:25.578Z,72.0121
2024-05-09T08:17:25.569Z,71.7462
2024-05-09T08:18:27.990Z,71.0971
2024-05-09T08:19:28.085Z,70.7813
2024-05-09T08:20:33.720Z,70.5389
2024-05-09T08:21:31.482Z,70.8631
2024-05-09T08:22:32.439Z,70.9227
2024-05-09T08:23:34.700Z,70.8870
2024-05-09T08:24:36.984Z,71.3551
2024-05-09T08:25:39.196Z,71.6719
2024-05-09T08:26:41.466Z,71.8924
2024-05-09T08:27:42.555Z,71.5579
2024-05-09T08:28:42.416Z,71.8802
2024-05-09T08:29:44.713Z,71.6888
2024-05-09T08:30:44.840Z,71.8848
2024-05-09T08:31:45.839Z,71.9490
2024-05-09T08:32:48.353Z,71.9503
2024-05-09T08:33:48.668Z,72.4389
2024-05-09T08:34:48.721Z,71.9341
2024-05-09T08:35:50.024Z,71.7557
2024-05-09T08:36:52.376Z,71.7640
2024-05-09T08:37:53.069Z,72.0935
2024-05-09T08:38:53.062Z,72.0273
2024-05-09T08:39:53.204Z,72.4863
2024-05-09T08:40:55.593Z,72.3791
2024-05-09T08:41:55.650Z,71.7064
2024-05-09T08:42:57.874Z,72.0008
2024-05-09T08:44:00.121Z,71.7720
2024-05-09T08:45:02.303Z,72.0359
2024-05-09T08:46:02.393Z,71.4891
2024-05-09T08:47:02.981Z,71.6484
2024-05-09T08:48:05.421Z,70.4321
2024-05-09T08:49:06.058Z,71.1554
2024-05-09T08:50:08.570Z,69.8008
2024-05-09T08:51:06.583Z,70.0628
2024-05-09T08:52:07.546Z,70.2338
2024-05-09T08:53:07.856Z,69.7347
2024-05-09T08:54:07.937Z,69.4637
2024-05-09T08:55:10.363Z,69.0477
2024-05-09T08:56:10.502Z,68.7265
2024-05-09T08:57:12.721Z,68.2720
2024-05-09T08:58:15.353Z,68.1154
2024-05-09T08:59:16.168Z,68.1653
2024-05-09T09:00:29.049Z,67.5045
2024-05-09T09:01:19.702Z,67.6164
2024-05-09T09:02:21.293Z,67.8068
2024-05-09T09:03:21.850Z,67.9724
2024-05-09T09:04:24.259Z,67.8569
2024-05-09T09:05:24.426Z,67.8701
2024-05-09T09:06:24.357Z,68.0814
2024-05-09T09:07:26.784Z,67.9502
2024-05-09T09:08:27.683Z,68.5515
2024-05-09T09:09:27.996Z,68.7548
2024-05-09T09:10:32.360Z,69.2272
2024-05-09T09:11:30.827Z,69.5462
2024-05-09T09:12:33.107Z,69.4192
2024-05-09T09:13:35.350Z,69.6506
2024-05-09T09:14:37.596Z,69.6668
2024-05-09T09:15:37.664Z,70.1646
2024-05-09T09:16:39.938Z,69.9549
2024-05-09T09:17:42.387Z,69.3163
2024-05-09T09:18:42.644Z,69.0689
2024-05-09T09:19:42.584Z,68.5405
2024-05-09T09:20:45.005Z,68.3895
2024-05-09T09:21:45.060Z,68.1879
2024-05-09T09:22:45.122Z,68.0948
2024-05-09T09:23:47.527Z,68.2319
2024-05-09T09:24:49.724Z,68.2629
2024-05-09T09:25:50.863Z,68.1881
2024-05-09T09:26:51.713Z,67.8215
2024-05-09T09:27:53.991Z,67.5863
2024-05-09T09:28:54.037Z,66.9652
2024-05-09T09:29:56.322Z,66.0398
2024-05-09T09:30:56.238Z,65.6814
2024-05-09T09:31:58.466Z,64.8781
2024-05-09T09:33:01.009Z,64.5912
2024-05-09T09:34:01.283Z,64.2542
2024-05-09T09:35:01.395Z,64.9059
2024-05-09T09:36:01.531Z,65.2859
2024-05-09T09:37:03.823Z,65.8189
2024-05-09T09:38:03.823Z,65.7474
2024-05-09T09:39:06.062Z,65.3252
2024-05-09T09:40:08.949Z,65.8636
2024-05-09T09:41:08.895Z,66.0974
2024-05-09T09:42:09.804Z,66.3656
2024-05-09T09:43:12.212Z,66.0538
2024-05-09T09:44:12.279Z,65.8667
2024-05-09T09:45:14.632Z,65.5879
2024-05-09T09:46:17.121Z,65.4512
2024-05-09T09:47:17.373Z,65.5914
2024-05-09T09:48:19.748Z,65.4582
2024-05-09T09:49:21.538Z,64.5930
2024-05-09T09:50:27.706Z,64.6957
2024-05-09T09:51:22.620Z,64.5670
2024-05-09T09:52:23.028Z,65.2664
2024-05-09T09:53:22.931Z,64.6690
2024-05-09T09:54:25.231Z,64.6508
2024-05-09T09:55:26.062Z,64.3901
2024-05-09T09:56:25.959Z,63.5408
2024-05-09T09:57:26.221Z,63.3333
2024-05-09T09:58:28.563Z,61.7716
2024-05-09T09:59:28.524Z,61.7744
2024-05-09T10:00:33.290Z,60.3987
2024-05-09T10:01:31.911Z,60.4691
2024-05-09T10:02:32.172Z,60.1550
2024-05-09T10:03:32.342Z,62.1158
2024-05-09T10:04:33.417Z,60.7992
2024-05-09T10:05:33.717Z,59.2258
2024-05-09T10:06:33.755Z,58.9393
2024-05-09T10:07:35.924Z,58.2473
2024-05-09T10:08:38.038Z,58.1358
2024-05-09T10:09:40.283Z,57.7415
2024-05-09T10:10:42.690Z,56.4451
2024-05-09T10:12:44.854Z,53.9333
2024-05-09T10:13:47.071Z,54.3735
2024-05-09T10:14:49.367Z,54.7445
2024-05-09T10:15:52.146Z,54.3276
2024-05-09T10:16:52.295Z,54.8563
2024-05-09T10:17:54.712Z,55.5791
2024-05-09T10:18:54.822Z,55.4701
2024-05-09T10:19:54.864Z,56.0210
2024-05-09T10:20:54.932Z,56.8981
2024-05-09T10:21:57.258Z,56.0474
2024-05-09T10:22:57.328Z,56.2107
2024-05-09T10:23:57.645Z,56.3394
2024-05-09T10:25:01.505Z,55.2710
2024-05-09T10:26:03.790Z,54.6983
2024-05-09T10:27:03.616Z,54.3155
2024-05-09T10:28:04.135Z,55.3245
2024-05-09T10:29:06.439Z,54.5893
2024-05-09T10:30:14.412Z,54.9121
2024-05-09T10:31:09.701Z,53.9404
2024-05-09T10:32:11.920Z,54.2347
2024-05-09T10:33:13.008Z,54.9914
2024-05-09T10:34:13.172Z,54.9280
2024-05-09T10:35:13.146Z,54.1358
2024-05-09T10:36:13.319Z,53.9014
2024-05-09T10:37:15.695Z,54.9620
2024-05-09T10:38:15.637Z,55.9905
2024-05-09T10:39:16.014Z,56.3698
2024-05-09T10:40:25.778Z,55.7901
2024-05-09T10:41:19.112Z,56.0667
2024-05-09T10:42:21.311Z,57.1666
2024-05-09T10:43:21.336Z,56.4883
2024-05-09T10:44:21.153Z,56.8444
2024-05-09T10:45:23.487Z,56.6187
2024-05-09T10:46:25.759Z,56.3808
2024-05-09T10:47:28.199Z,56.9876
2024-05-09T10:48:29.323Z,57.0352
2024-05-09T10:49:29.267Z,56.7493
2024-05-09T10:50:34.238Z,57.0567
2024-05-09T10:51:33.226Z,59.7834
2024-05-09T10:52:35.519Z,61.3940
2024-05-09T10:53:37.859Z,60.5756
2024-05-09T10:54:37.894Z,61.3067
2024-05-09T10:55:37.881Z,60.9368
2024-05-09T10:56:37.768Z,58.7571
2024-05-09T10:57:39.986Z,58.5152
2024-05-09T10:58:42.401Z,56.9179
2024-05-09T10:59:42.371Z,56.4504
2024-05-09T11:00:44.794Z,55.6166
2024-05-09T11:01:45.018Z,54.7485
2024-05-09T11:02:45.053Z,53.8228
2024-05-09T11:03:47.572Z,53.1552
2024-05-09T11:04:47.951Z,52.7993
2024-05-09T11:05:47.997Z,51.3848
2024-05-09T11:06:48.073Z,52.1846
2024-05-09T11:07:50.570Z,51.9371
2024-05-09T11:08:50.486Z,50.4208
2024-05-09T11:09:52.903Z,50.7630
2024-05-09T11:10:53.039Z,51.4938
2024-05-09T11:11:53.226Z,51.2256
2024-05-09T11:12:53.293Z,50.7877
2024-05-09T11:13:55.546Z,50.0423
2024-05-09T11:14:57.860Z,51.0682
2024-05-09T11:16:00.179Z,52.4923
2024-05-09T11:17:00.276Z,52.2958
2024-05-09T11:18:02.782Z,52.5519
2024-05-09T11:19:04.916Z,52.4669
2024-05-09T11:20:10.773Z,53.4909
2024-05-09T11:21:06.106Z,54.1294
2024-05-09T11:22:08.570Z,52.4897
2024-05-09T11:23:08.578Z,49.2658
2024-05-09T11:24:11.482Z,44.6738
2024-05-09T11:25:11.853Z,44.8067
2024-05-09T11:26:12.590Z,45.8726
2024-05-09T11:27:12.522Z,47.1286
2024-05-09T11:28:15.046Z,48.0331
2024-05-09T11:29:17.935Z,48.4741
2024-05-09T11:30:24.190Z,47.8556
2024-05-09T11:31:18.255Z,48.3970
2024-05-09T11:32:18.302Z,50.0962
2024-05-09T11:33:19.220Z,49.9397
2024-05-09T11:34:19.373Z,50.2976
2024-05-09T11:35:19.637Z,51.4877
2024-05-09T11:36:19.555Z,51.4475
2024-05-09T11:37:19.635Z,52.2406
2024-05-09T11:38:19.584Z,52.1481
2024-05-09T11:39:21.779Z,51.7376
2024-05-09T11:40:26.035Z,54.0300
2024-05-09T11:41:25.076Z,56.5560
2024-05-09T11:42:25.206Z,55.4460
2024-05-09T11:43:25.475Z,54.1936
2024-05-09T11:44:25.341Z,53.9806
2024-05-09T11:45:27.554Z,53.6500
2024-05-09T11:46:29.703Z,52.9890
2024-05-09T11:47:32.075Z,52.4722
2024-05-09T11:48:32.331Z,52.7550
2024-05-09T11:49:32.613Z,52.5753
2024-05-09T11:50:35.498Z,52.4530
2024-05-09T11:51:33.432Z,52.1649
2024-05-09T11:52:35.665Z,51.6385
2024-05-09T11:53:37.818Z,53.7815
2024-05-09T11:54:40.114Z,55.9182
2024-05-09T11:55:42.284Z,55.5574
2024-05-09T11:56:44.513Z,54.9543
2024-05-09T11:57:46.848Z,55.0138
2024-05-09T11:58:47.136Z,54.8531
2024-05-09T11:59:50.061Z,55.4704
2024-05-09T12:00:50.044Z,55.6890
2024-05-09T12:01:50.295Z,55.0909
2024-05-09T12:02:50.318Z,54.9674
2024-05-09T12:03:52.743Z,55.4037
2024-05-09T12:04:52.814Z,55.0211
2024-05-09T12:05:55.060Z,54.3260
2024-05-09T12:06:57.326Z,53.7455
2024-05-09T12:07:59.450Z,53.6665
2024-05-09T12:09:01.622Z,53.5339
2024-05-09T12:10:06.080Z,52.4646
2024-05-09T12:11:05.753Z,50.9522
2024-05-09T12:12:08.038Z,51.2032
2024-05-09T12:13:10.400Z,50.3722
2024-05-09T12:14:12.676Z,50.7355
2024-05-09T12:15:14.996Z,49.9325
2024-05-09T12:16:17.301Z,49.6108
2024-05-09T12:17:19.609Z,50.5317
2024-05-09T12:18:21.801Z,50.6686
2024-05-09T12:19:24.049Z,49.7906
2024-05-09T12:20:34.727Z,50.8432
2024-05-09T12:21:27.285Z,51.3942
2024-05-09T12:22:29.455Z,51.4301
2024-05-09T12:23:31.641Z,50.7869
2024-05-09T12:24:33.872Z,50.7587
2024-05-09T12:25:36.970Z,51.7795
2024-05-09T12:26:39.133Z,52.3938